Карточка аэропорта ULAA

Внимание!
Информация на этой странице в стадии наполнения.
Если вы не увидели какой-то информации, или заметили неточность - пожалуйста сообщите нам!
Спасибо!
Команда RU-STAFF
Название аэропортаТалаги
Название аэропорта (англ.)Talagi
Превышение62 ft. (18.9 m.)
Координаты64°36.018', 40°43.002'
Высота перехода3000FT
Эшелон переходаQFE>=760mm:FL040; QFE<760=>733:FL050; QFE<733:FL060
Коды ответчика3120-3127
Зона ОрВДСанкт-Петербург РПИ (ULLL)
Данные METARULAA 160830Z VRB01MPS 9999 BKN014 21/19 Q1016 R08/CLRD70 NOSIG RMK QFE760/1014
Проноз погоды (TAF)ULAA 160800Z 1609/1709 34003MPS 9999 BKN016 TEMPO 1609/1615 32003MPS 6000 -TSRA BKN005 BKN011CB TEMPO 1621/1703 VRB01MPS 0500 FG BKN003
NOTAMshow/hide NOTAM
AWOS   TABLE

Информация о ВПП


Диспетчерские позиции

Позывной Наименование органа УВД Частота
ULAA_APPАрхангельск-Подход122.0
ULAA_TWRАрхангельск-Вышка121.8



Спутниковое изображение